createdAt,value
2017-08-14T00:02:44.884Z,100929
2017-08-14T00:07:48.097Z,100926
2017-08-14T00:12:51.441Z,100941
2017-08-14T00:17:54.865Z,100925
2017-08-14T00:22:58.269Z,100914
2017-08-14T00:28:01.573Z,100920
2017-08-14T00:33:04.871Z,100922
2017-08-14T00:38:08.054Z,100918
2017-08-14T00:43:11.453Z,100920
2017-08-14T00:48:15.216Z,100922
2017-08-14T00:53:18.561Z,100918
2017-08-14T00:58:22.704Z,100919
2017-08-14T01:03:26.267Z,100919
2017-08-14T01:08:29.908Z,100913
2017-08-14T01:13:33.357Z,100916
2017-08-14T01:18:36.777Z,100911
2017-08-14T01:23:40.245Z,100912
2017-08-14T01:28:43.420Z,100907
2017-08-14T01:33:46.832Z,100909
2017-08-14T01:38:50.254Z,100905
2017-08-14T01:43:53.544Z,100902
2017-08-14T01:48:57.089Z,100900
2017-08-14T01:54:00.847Z,100897
2017-08-14T01:59:04.945Z,100890
2017-08-14T02:04:08.372Z,100898
2017-08-14T02:09:12.321Z,100903
2017-08-14T02:14:15.516Z,100901
2017-08-14T02:19:19.531Z,100889
2017-08-14T02:24:23.941Z,100893
2017-08-14T02:29:27.404Z,100893
2017-08-14T02:34:30.601Z,100886
2017-08-14T02:39:34.177Z,100885
2017-08-14T02:44:37.758Z,100881
2017-08-14T02:49:41.714Z,100882
2017-08-14T02:54:44.878Z,100881
2017-08-14T02:59:48.340Z,100874
2017-08-14T03:04:51.945Z,100882
2017-08-14T03:09:55.226Z,100889
2017-08-14T03:14:58.403Z,100882
2017-08-14T03:20:02.358Z,100876
2017-08-14T03:25:05.580Z,100893
2017-08-14T03:30:08.861Z,100892
2017-08-14T03:35:12.828Z,100880
2017-08-14T03:40:16.017Z,100880
2017-08-14T03:45:19.206Z,100873
2017-08-14T03:50:22.387Z,100880
2017-08-14T03:55:26.356Z,100885
2017-08-14T04:00:29.589Z,100882
2017-08-14T04:05:32.846Z,100886
2017-08-14T04:10:36.823Z,100880
2017-08-14T04:15:40.018Z,100891
2017-08-14T04:20:43.196Z,100885
2017-08-14T04:25:46.387Z,100887
2017-08-14T04:30:50.344Z,100882
2017-08-14T04:35:53.562Z,100889
2017-08-14T04:40:56.754Z,100892
2017-08-14T04:45:59.934Z,100899
2017-08-14T04:51:03.898Z,100909
2017-08-14T04:56:07.089Z,100907
2017-08-14T05:01:10.298Z,100901
2017-08-14T05:06:13.503Z,100903
2017-08-14T05:11:16.718Z,100897
2017-08-14T05:16:19.955Z,100894
2017-08-14T05:21:23.155Z,100898
2017-08-14T05:26:26.330Z,100898
2017-08-14T05:31:29.727Z,100902
2017-08-14T05:36:33.694Z,100896
2017-08-14T05:41:36.852Z,100899
2017-08-14T05:46:40.060Z,100897
2017-08-14T05:51:44.033Z,100892
2017-08-14T05:56:47.239Z,100893
2017-08-14T06:01:50.450Z,100893
2017-08-14T06:06:53.797Z,100884
2017-08-14T06:11:57.003Z,100884
2017-08-14T06:17:00.997Z,100883
2017-08-14T06:22:04.181Z,100886
2017-08-14T06:27:07.367Z,100881
2017-08-14T06:32:10.573Z,100888
2017-08-14T06:37:13.788Z,100896
2017-08-14T06:42:17.008Z,100895
2017-08-14T06:47:20.292Z,100892
2017-08-14T06:52:24.192Z,100895
2017-08-14T06:57:28.142Z,100895
2017-08-14T07:02:31.317Z,100900
2017-08-14T07:07:34.472Z,100900
2017-08-14T07:12:37.646Z,100903
2017-08-14T07:17:41.585Z,100899
2017-08-14T07:22:44.789Z,100904
2017-08-14T07:27:47.997Z,100890
2017-08-14T07:32:51.177Z,100885
2017-08-14T07:37:54.360Z,100878
2017-08-14T07:42:57.548Z,100889
2017-08-14T07:48:00.740Z,100885
2017-08-14T07:53:03.926Z,100884
2017-08-14T07:58:07.111Z,100871
2017-08-14T08:03:10.301Z,100879
2017-08-14T08:08:13.480Z,100883
2017-08-14T08:13:16.702Z,100886
2017-08-14T08:18:19.863Z,100890
2017-08-14T08:23:23.041Z,100886
2017-08-14T08:28:27.002Z,100883
2017-08-14T08:33:30.196Z,100884
2017-08-14T08:38:33.405Z,100886
2017-08-14T08:43:36.590Z,100887
2017-08-14T08:48:40.635Z,100880
2017-08-14T08:53:44.574Z,100879
2017-08-14T08:58:47.743Z,100883
2017-08-14T09:03:50.923Z,100876
2017-08-14T09:08:54.121Z,100870
2017-08-14T09:13:57.317Z,100876
2017-08-14T09:19:00.485Z,100867
2017-08-14T09:24:04.465Z,100875
2017-08-14T09:29:07.645Z,100862
2017-08-14T09:34:10.825Z,100858
2017-08-14T09:39:14.770Z,100852
2017-08-14T09:44:17.958Z,100856
2017-08-14T09:49:21.150Z,100846
2017-08-14T09:54:25.129Z,100865
2017-08-14T09:59:28.305Z,100857
2017-08-14T10:04:31.502Z,100860
2017-08-14T10:09:35.457Z,100845
2017-08-14T10:14:38.669Z,100846
2017-08-14T10:19:41.852Z,100837
2017-08-14T10:24:45.137Z,100844
2017-08-14T10:29:49.117Z,100826
2017-08-14T10:34:52.280Z,100847
2017-08-14T10:39:56.229Z,100844
2017-08-14T10:44:59.395Z,100827
2017-08-14T10:50:03.303Z,100831
2017-08-14T10:55:06.496Z,100823
2017-08-14T11:00:09.696Z,100821
2017-08-14T11:05:12.873Z,100811
2017-08-14T11:10:16.049Z,100811
2017-08-14T11:15:20.059Z,100808
2017-08-14T11:20:24.015Z,100793
2017-08-14T11:25:27.194Z,100792
2017-08-14T11:30:31.146Z,100794
2017-08-14T11:35:34.321Z,100790
2017-08-14T11:40:37.484Z,100784
2017-08-14T11:45:40.658Z,100775
2017-08-14T11:50:43.844Z,100773
2017-08-14T11:55:47.030Z,100775
2017-08-14T12:00:50.228Z,100772
2017-08-14T12:05:53.413Z,100760
2017-08-14T12:10:56.655Z,100755
2017-08-14T12:15:59.841Z,100755
2017-08-14T12:21:03.113Z,100750
2017-08-14T12:26:07.053Z,100758
2017-08-14T12:31:10.324Z,100752
2017-08-14T12:36:14.285Z,100748
2017-08-14T12:41:17.454Z,100748
2017-08-14T12:46:21.434Z,100746
2017-08-14T12:51:24.642Z,100733
2017-08-14T12:56:27.815Z,100723
2017-08-14T13:01:31.011Z,100727
2017-08-14T13:06:34.945Z,100712
2017-08-14T13:11:38.129Z,100704
2017-08-14T13:16:42.090Z,100704
2017-08-14T13:21:45.287Z,100698
2017-08-14T13:26:48.490Z,100701
2017-08-14T13:31:51.699Z,100707
2017-08-14T13:36:54.939Z,100690
2017-08-14T13:41:58.118Z,100695
2017-08-14T13:47:01.305Z,100684
2017-08-14T13:52:04.529Z,100669
2017-08-14T13:57:07.771Z,100674
2017-08-14T14:02:10.972Z,100682
2017-08-14T14:07:14.148Z,100668
2017-08-14T14:12:17.345Z,100663
2017-08-14T14:17:20.546Z,100663
2017-08-14T14:22:24.481Z,100665
2017-08-14T14:27:27.679Z,100655
2017-08-14T14:32:31.754Z,100645
2017-08-14T14:37:34.937Z,100645
2017-08-14T14:42:38.117Z,100627
2017-08-14T14:47:41.285Z,100628
2017-08-14T14:52:44.479Z,100613
2017-08-14T14:57:47.646Z,100621
2017-08-14T15:02:50.843Z,100621
2017-08-14T15:07:54.866Z,100611
2017-08-14T15:12:58.053Z,100610
2017-08-14T15:18:01.271Z,100607
2017-08-14T15:23:05.242Z,100606
2017-08-14T15:28:08.427Z,100604
2017-08-14T15:33:11.607Z,100603
2017-08-14T15:38:15.670Z,100599
2017-08-14T15:43:18.897Z,100600
2017-08-14T15:48:22.088Z,100597
2017-08-14T15:53:25.297Z,100599
2017-08-14T15:58:28.476Z,100586
2017-08-14T16:03:31.633Z,100577
2017-08-14T16:08:34.826Z,100581
2017-08-14T16:13:38.020Z,100574
2017-08-14T16:18:41.208Z,100579
2017-08-14T16:23:44.397Z,100577
2017-08-14T16:28:48.367Z,100565
2017-08-14T16:33:51.629Z,100569
2017-08-14T16:38:55.594Z,100563
2017-08-14T16:43:58.872Z,100564
2017-08-14T16:49:02.845Z,100558
2017-08-14T16:54:06.066Z,100556
2017-08-14T16:59:09.246Z,100548
2017-08-14T17:04:12.437Z,100556
2017-08-14T17:09:15.604Z,100548
2017-08-14T17:14:19.573Z,100540
2017-08-14T17:19:23.579Z,100546
2017-08-14T17:24:26.796Z,100546
2017-08-14T17:29:29.999Z,100541
2017-08-14T17:34:33.185Z,100542
2017-08-14T17:39:36.356Z,100539
2017-08-14T17:44:40.435Z,100543
2017-08-14T17:49:43.607Z,100535
2017-08-14T17:54:47.585Z,100536
2017-08-14T17:59:50.805Z,100532
2017-08-14T18:04:53.951Z,100536
2017-08-14T18:09:57.170Z,100532
2017-08-14T18:15:01.127Z,100541
2017-08-14T18:20:04.345Z,100545
2017-08-14T18:25:07.563Z,100545
2017-08-14T18:30:10.734Z,100545
2017-08-14T18:35:13.960Z,100549
2017-08-14T18:40:17.155Z,100548
2017-08-14T18:45:20.355Z,100555
2017-08-14T18:50:23.549Z,100554
2017-08-14T18:55:26.738Z,100560
2017-08-14T19:00:30.727Z,100560
2017-08-14T19:05:33.911Z,100561
2017-08-14T19:10:37.119Z,100576
2017-08-14T19:15:40.307Z,100575
2017-08-14T19:20:43.520Z,100566
2017-08-14T19:25:46.748Z,100568
2017-08-14T19:30:49.962Z,100563
2017-08-14T19:35:53.167Z,100572
2017-08-14T19:40:56.357Z,100574
2017-08-14T19:45:59.653Z,100574
2017-08-14T19:51:03.606Z,100583
2017-08-14T19:56:06.839Z,100588
2017-08-14T20:01:10.034Z,100576
2017-08-14T20:06:13.385Z,100578
2017-08-14T20:11:17.354Z,100578
2017-08-14T20:16:20.583Z,100578
2017-08-14T20:21:23.805Z,100583
2017-08-14T20:26:27.766Z,100573
2017-08-14T20:31:30.969Z,100575
2017-08-14T20:36:34.216Z,100570
2017-08-14T20:41:37.423Z,100571
2017-08-14T20:46:40.647Z,100570
2017-08-14T20:51:43.820Z,100568
2017-08-14T20:56:47.001Z,100553
2017-08-14T21:01:50.198Z,100554
2017-08-14T21:06:54.171Z,100560
2017-08-14T21:11:57.382Z,100557
2017-08-14T21:17:00.610Z,100559
2017-08-14T21:22:03.801Z,100557
2017-08-14T21:27:07.022Z,100557
2017-08-14T21:32:10.199Z,100547
2017-08-14T21:37:13.387Z,100547
2017-08-14T21:42:16.585Z,100546
2017-08-14T21:47:19.789Z,100548
2017-08-14T21:52:22.985Z,100556
2017-08-14T21:57:26.168Z,100552
2017-08-14T22:02:29.360Z,100557
2017-08-14T22:07:32.559Z,100559
2017-08-14T22:12:35.736Z,100561
2017-08-14T22:17:38.922Z,100556
2017-08-14T22:22:42.101Z,100553
2017-08-14T22:27:46.060Z,100552
2017-08-14T22:32:49.250Z,100553
2017-08-14T22:37:53.201Z,100543
2017-08-14T22:42:56.488Z,100545
2017-08-14T22:48:00.451Z,100542
2017-08-14T22:53:03.622Z,100530
2017-08-14T22:58:06.793Z,100534
2017-08-14T23:03:09.977Z,100535
2017-08-14T23:08:13.174Z,100529
2017-08-14T23:13:16.356Z,100526
2017-08-14T23:18:19.550Z,100526
2017-08-14T23:23:23.515Z,100523
2017-08-14T23:28:26.697Z,100517
2017-08-14T23:33:29.879Z,100510
2017-08-14T23:38:33.826Z,100515
2017-08-14T23:43:37.009Z,100518
2017-08-14T23:48:40.964Z,100512
2017-08-14T23:53:44.165Z,100513
2017-08-14T23:58:47.362Z,100510
